createdAt,value
2022-12-31T00:01:26.569Z,1.98
2022-12-31T00:03:32.063Z,2.30
2022-12-31T00:05:38.290Z,2.67
2022-12-31T00:09:46.667Z,2.20
2022-12-31T00:11:51.395Z,1.70
2022-12-31T00:13:59.325Z,2.53
2022-12-31T00:16:12.316Z,2.00
2022-12-31T00:18:17.951Z,2.35
2022-12-31T00:20:22.828Z,2.35
2022-12-31T00:22:27.604Z,2.42
2022-12-31T00:24:33.401Z,3.28
2022-12-31T00:26:38.727Z,2.65
2022-12-31T00:28:44.139Z,1.95
2022-12-31T00:30:51.654Z,3.08
2022-12-31T00:32:56.647Z,1.90
2022-12-31T00:35:01.656Z,1.90
2022-12-31T00:37:06.488Z,2.70
2022-12-31T00:39:13.338Z,2.13
2022-12-31T00:41:19.549Z,2.17
2022-12-31T00:43:24.490Z,2.10
2022-12-31T00:45:29.428Z,2.13
2022-12-31T00:47:36.852Z,2.50
2022-12-31T00:49:41.543Z,1.88
2022-12-31T00:51:48.480Z,2.50
2022-12-31T00:53:53.373Z,2.20
2022-12-31T00:56:02.781Z,1.70
2022-12-31T00:58:07.693Z,1.80
2022-12-31T01:00:14.482Z,1.83
2022-12-31T01:02:21.814Z,2.88
2022-12-31T01:04:30.924Z,2.35
2022-12-31T01:06:35.829Z,2.55
2022-12-31T01:08:40.713Z,2.10
2022-12-31T01:10:58.035Z,1.90
2022-12-31T01:13:03.021Z,2.20
2022-12-31T01:15:09.496Z,2.58
2022-12-31T01:17:14.155Z,2.53
2022-12-31T01:19:20.917Z,3.10
2022-12-31T01:21:28.560Z,3.25
2022-12-31T01:23:36.767Z,2.53
2022-12-31T01:25:42.730Z,3.30
2022-12-31T01:27:47.699Z,2.90
2022-12-31T01:29:52.683Z,2.80
2022-12-31T01:31:57.531Z,2.65
2022-12-31T01:34:02.555Z,2.85
2022-12-31T01:36:09.920Z,2.20
2022-12-31T01:38:17.364Z,1.83
2022-12-31T01:40:22.766Z,2.28
2022-12-31T01:42:27.643Z,1.77
2022-12-31T01:44:55.263Z,2.20
2022-12-31T01:47:01.922Z,1.67
2022-12-31T01:49:13.189Z,1.80
2022-12-31T01:51:18.022Z,1.95
2022-12-31T01:53:25.535Z,1.80
2022-12-31T01:55:35.253Z,1.80
2022-12-31T01:57:40.699Z,1.95
2022-12-31T01:59:46.008Z,1.40
2022-12-31T02:01:55.426Z,1.42
2022-12-31T02:04:00.979Z,1.60
2022-12-31T02:06:10.281Z,1.90
2022-12-31T02:08:15.399Z,2.13
2022-12-31T02:10:22.799Z,2.05
2022-12-31T02:12:27.597Z,2.30
2022-12-31T02:14:34.685Z,2.80
2022-12-31T02:16:45.469Z,2.25
2022-12-31T02:18:57.852Z,2.10
2022-12-31T02:21:23.255Z,2.15
2022-12-31T02:24:12.384Z,2.13
2022-12-31T02:26:48.555Z,2.10
2022-12-31T02:29:18.740Z,1.90
2022-12-31T02:31:32.679Z,2.15
2022-12-31T02:33:41.632Z,2.30
2022-12-31T02:35:50.294Z,2.38
2022-12-31T02:38:00.762Z,2.75
2022-12-31T02:40:05.842Z,3.05
2022-12-31T02:42:10.536Z,3.30
2022-12-31T02:44:25.034Z,3.00
2022-12-31T02:46:36.166Z,2.22
2022-12-31T02:48:45.023Z,2.15
2022-12-31T02:50:59.444Z,2.20
2022-12-31T02:53:17.724Z,1.83
2022-12-31T02:55:29.368Z,2.22
2022-12-31T02:57:41.446Z,1.50
2022-12-31T03:00:05.636Z,1.50
2022-12-31T03:02:16.272Z,1.70
2022-12-31T03:04:37.545Z,1.75
2022-12-31T03:06:43.289Z,1.63
2022-12-31T03:09:00.277Z,1.80
2022-12-31T03:11:25.679Z,1.83
2022-12-31T03:13:27.884Z,1.90
2022-12-31T03:15:35.359Z,2.03
2022-12-31T03:17:42.823Z,1.70
2022-12-31T03:20:00.007Z,1.67
2022-12-31T03:22:17.621Z,1.65
2022-12-31T03:24:35.023Z,1.75
2022-12-31T03:26:39.715Z,1.92
2022-12-31T03:28:48.137Z,1.80
2022-12-31T03:30:55.443Z,2.17
2022-12-31T03:33:03.279Z,2.28
2022-12-31T03:35:09.408Z,1.70
2022-12-31T03:37:14.142Z,2.13
2022-12-31T03:39:19.047Z,2.03
2022-12-31T03:41:23.924Z,2.05
2022-12-31T03:43:28.923Z,1.92
2022-12-31T03:45:34.386Z,2.13
2022-12-31T03:47:39.490Z,2.08
2022-12-31T03:49:46.807Z,1.98
2022-12-31T03:51:51.957Z,2.00
2022-12-31T03:53:56.728Z,1.75
2022-12-31T03:56:01.494Z,2.42
2022-12-31T03:58:07.603Z,2.35
2022-12-31T04:00:16.109Z,2.45
2022-12-31T04:02:24.776Z,2.72
2022-12-31T04:04:33.513Z,2.63
2022-12-31T04:06:40.788Z,2.58
2022-12-31T04:08:45.500Z,2.70
2022-12-31T04:10:50.215Z,2.40
2022-12-31T04:12:55.150Z,2.08
2022-12-31T04:15:00.109Z,3.17
2022-12-31T04:17:05.971Z,2.40
2022-12-31T04:19:10.699Z,2.35
2022-12-31T04:21:15.615Z,2.53
2022-12-31T04:23:23.090Z,2.42
2022-12-31T04:25:27.871Z,2.60
2022-12-31T04:27:32.690Z,3.20
2022-12-31T04:29:37.553Z,2.60
2022-12-31T04:31:42.409Z,3.42
2022-12-31T04:33:47.176Z,3.25
2022-12-31T04:35:52.150Z,3.20
2022-12-31T04:37:56.991Z,2.90
2022-12-31T04:40:06.677Z,2.90
2022-12-31T04:42:11.968Z,3.30
2022-12-31T04:44:16.845Z,3.17
2022-12-31T04:46:24.578Z,3.25
2022-12-31T04:48:29.513Z,3.50
2022-12-31T04:50:34.812Z,3.60
2022-12-31T04:52:43.079Z,3.30
2022-12-31T04:54:47.868Z,4.28
2022-12-31T04:56:55.390Z,4.10
2022-12-31T04:59:00.300Z,3.92
2022-12-31T05:01:05.815Z,4.18
2022-12-31T05:03:10.974Z,4.07
2022-12-31T05:05:15.791Z,3.60
2022-12-31T05:07:20.737Z,3.88
2022-12-31T05:09:27.743Z,3.90
2022-12-31T05:11:32.745Z,3.63
2022-12-31T05:13:40.500Z,3.40
2022-12-31T05:15:45.723Z,3.05
2022-12-31T05:17:50.581Z,3.33
2022-12-31T05:19:55.401Z,3.05
2022-12-31T05:22:15.284Z,2.92
2022-12-31T05:24:20.215Z,3.00
2022-12-31T05:26:24.991Z,2.83
2022-12-31T05:28:29.747Z,2.80
2022-12-31T05:30:37.164Z,2.65
2022-12-31T05:32:42.186Z,2.70
2022-12-31T05:34:47.097Z,3.42
2022-12-31T05:36:51.812Z,3.10
2022-12-31T05:38:56.842Z,3.67
2022-12-31T05:41:06.014Z,3.83
2022-12-31T05:43:11.060Z,4.55
2022-12-31T05:45:17.229Z,3.92
2022-12-31T05:47:24.671Z,4.88
2022-12-31T05:49:29.555Z,3.92
2022-12-31T05:51:34.559Z,3.95
2022-12-31T05:53:39.361Z,3.78
2022-12-31T05:55:44.185Z,3.38
2022-12-31T05:57:49.003Z,3.53
2022-12-31T05:59:53.733Z,2.85
2022-12-31T06:01:58.588Z,2.45
2022-12-31T06:04:06.214Z,2.25
2022-12-31T06:06:11.064Z,1.90
2022-12-31T06:08:15.948Z,1.95
2022-12-31T06:10:21.184Z,2.35
2022-12-31T06:12:25.990Z,2.28
2022-12-31T06:14:30.823Z,2.13
2022-12-31T06:16:35.760Z,4.20
2022-12-31T06:18:41.067Z,2.53
2022-12-31T06:20:48.461Z,2.60
2022-12-31T06:22:53.506Z,2.85
2022-12-31T06:24:58.439Z,2.60
2022-12-31T06:27:03.279Z,2.85
2022-12-31T06:29:08.120Z,3.13
2022-12-31T06:31:18.085Z,4.60
2022-12-31T06:33:22.744Z,13.38
2022-12-31T06:35:27.676Z,8.25
2022-12-31T06:37:35.041Z,3.60
2022-12-31T06:39:39.919Z,3.13
2022-12-31T06:41:44.935Z,2.97
2022-12-31T06:43:49.864Z,3.58
2022-12-31T06:45:54.805Z,2.75
2022-12-31T06:47:59.949Z,2.60
2022-12-31T06:50:04.779Z,2.92
2022-12-31T06:52:09.703Z,2.58
2022-12-31T06:54:17.489Z,1.80
2022-12-31T06:56:31.209Z,2.90
2022-12-31T06:58:39.363Z,2.30
2022-12-31T07:00:47.939Z,2.25
2022-12-31T07:03:07.695Z,2.65
2022-12-31T07:05:31.811Z,2.50
2022-12-31T07:07:40.413Z,2.40
2022-12-31T07:09:54.051Z,2.50
2022-12-31T07:12:05.893Z,1.95
2022-12-31T07:14:18.054Z,1.95
2022-12-31T07:16:31.384Z,2.17
2022-12-31T07:18:40.197Z,1.90
2022-12-31T07:20:46.662Z,2.00
2022-12-31T07:22:52.307Z,2.45
2022-12-31T07:25:00.579Z,2.55
2022-12-31T07:27:29.493Z,2.47
2022-12-31T07:29:43.754Z,2.45
2022-12-31T07:32:04.919Z,2.65
2022-12-31T07:34:14.547Z,2.50
2022-12-31T07:36:28.435Z,2.58
2022-12-31T07:38:39.206Z,2.22
2022-12-31T07:40:57.994Z,1.95
2022-12-31T07:43:10.714Z,2.08
2022-12-31T07:45:21.362Z,1.90
2022-12-31T07:47:28.718Z,2.10
2022-12-31T07:49:35.591Z,1.50
2022-12-31T07:51:41.228Z,1.50
2022-12-31T07:53:46.579Z,1.20
2022-12-31T07:55:57.988Z,1.50
2022-12-31T07:58:08.218Z,1.50
2022-12-31T08:00:16.540Z,1.75
2022-12-31T08:02:28.916Z,1.52
2022-12-31T08:04:38.061Z,1.63
2022-12-31T08:06:50.258Z,1.65
2022-12-31T08:09:04.244Z,1.40
2022-12-31T08:11:17.341Z,2.00
2022-12-31T08:15:30.518Z,1.45
2022-12-31T08:17:35.979Z,1.70
2022-12-31T08:19:41.571Z,2.10
2022-12-31T08:21:52.082Z,2.08
2022-12-31T08:24:06.265Z,1.88
2022-12-31T08:26:23.592Z,1.77
2022-12-31T08:28:44.928Z,1.88
2022-12-31T08:30:59.035Z,2.03
2022-12-31T08:33:11.387Z,2.08
2022-12-31T08:35:31.846Z,2.17
2022-12-31T08:37:42.032Z,2.10
2022-12-31T08:39:58.286Z,1.92
2022-12-31T08:42:07.296Z,2.05
2022-12-31T08:44:16.535Z,1.95
2022-12-31T08:46:25.361Z,1.98
2022-12-31T08:48:35.390Z,2.22
2022-12-31T08:50:44.147Z,2.08
2022-12-31T08:52:51.667Z,2.20
2022-12-31T08:54:57.473Z,2.30
2022-12-31T08:57:10.794Z,2.22
2022-12-31T08:59:28.442Z,2.08
2022-12-31T09:01:37.049Z,2.13
2022-12-31T09:03:54.588Z,2.80
2022-12-31T09:06:06.100Z,4.40
2022-12-31T09:08:19.917Z,3.50
2022-12-31T09:10:30.251Z,2.50
2022-12-31T09:12:41.724Z,2.33
2022-12-31T09:14:50.735Z,3.13
2022-12-31T09:17:02.533Z,1.98
2022-12-31T09:19:07.467Z,2.08
2022-12-31T09:21:12.907Z,2.00
2022-12-31T09:23:18.612Z,2.47
2022-12-31T09:25:26.370Z,2.47
2022-12-31T09:27:33.586Z,2.22
2022-12-31T09:29:49.601Z,2.10
2022-12-31T09:32:02.328Z,2.50
2022-12-31T09:34:11.487Z,2.10
2022-12-31T09:36:21.751Z,3.33
2022-12-31T09:38:31.791Z,3.30
2022-12-31T09:41:02.629Z,2.33
2022-12-31T09:43:21.091Z,2.13
2022-12-31T09:45:51.871Z,3.83
2022-12-31T09:48:11.384Z,2.20
2022-12-31T09:50:37.852Z,2.92
2022-12-31T09:52:55.193Z,2.20
2022-12-31T09:55:07.147Z,2.58
2022-12-31T09:57:26.823Z,3.95
2022-12-31T09:59:38.289Z,3.20
2022-12-31T10:01:53.811Z,2.88
2022-12-31T10:04:26.988Z,2.47
2022-12-31T10:06:35.051Z,2.20
2022-12-31T10:08:52.704Z,3.08
2022-12-31T10:11:03.703Z,2.10
2022-12-31T10:13:23.334Z,2.33
2022-12-31T10:15:46.342Z,3.05
2022-12-31T10:18:03.316Z,2.45
2022-12-31T10:20:26.043Z,2.75
2022-12-31T10:22:50.753Z,2.88
2022-12-31T10:25:11.536Z,2.45
2022-12-31T10:27:38.280Z,2.50
2022-12-31T10:29:50.691Z,3.08
2022-12-31T10:32:04.765Z,2.78
2022-12-31T10:34:28.850Z,2.80
2022-12-31T10:36:39.257Z,2.22
2022-12-31T10:38:51.452Z,2.85
2022-12-31T10:41:23.932Z,2.77
2022-12-31T10:44:03.985Z,3.47
2022-12-31T10:46:24.737Z,2.80
2022-12-31T10:48:55.726Z,2.72
2022-12-31T10:51:32.782Z,2.72
2022-12-31T10:54:00.463Z,3.08
2022-12-31T10:56:33.551Z,2.67
2022-12-31T10:58:54.505Z,3.10
2022-12-31T11:01:05.833Z,2.90
2022-12-31T11:03:50.829Z,2.65
2022-12-31T11:06:32.361Z,2.70
2022-12-31T11:08:56.352Z,3.08
2022-12-31T11:11:16.673Z,3.67
2022-12-31T11:13:47.360Z,4.97
2022-12-31T11:18:16.352Z,2.92
2022-12-31T11:20:33.669Z,2.95
2022-12-31T11:22:50.669Z,2.42
2022-12-31T11:25:22.759Z,2.72
2022-12-31T11:27:48.989Z,3.78
2022-12-31T11:30:08.691Z,3.50
2022-12-31T11:32:23.757Z,3.28
2022-12-31T11:34:47.413Z,3.67
2022-12-31T11:37:03.291Z,4.55
2022-12-31T11:39:34.621Z,3.13
2022-12-31T11:41:45.808Z,4.53
2022-12-31T11:43:58.750Z,4.38
2022-12-31T11:46:35.850Z,3.38
2022-12-31T11:48:46.489Z,3.38
2022-12-31T11:50:58.663Z,2.92
2022-12-31T11:53:12.915Z,3.50
2022-12-31T11:55:41.110Z,2.97
2022-12-31T11:57:51.471Z,2.90
2022-12-31T12:00:02.048Z,2.75
2022-12-31T12:02:20.089Z,2.78
2022-12-31T12:04:24.888Z,2.92
2022-12-31T12:06:33.485Z,3.20
2022-12-31T12:08:39.113Z,3.10
2022-12-31T12:10:49.873Z,3.17
2022-12-31T12:12:55.617Z,2.85
2022-12-31T12:15:03.438Z,3.10
2022-12-31T12:17:11.165Z,3.47
2022-12-31T12:19:21.065Z,2.40
2022-12-31T12:21:27.457Z,3.13
2022-12-31T12:23:32.968Z,2.45
2022-12-31T12:25:41.198Z,4.03
2022-12-31T12:27:45.974Z,2.67
2022-12-31T12:29:51.261Z,2.45
2022-12-31T12:32:03.302Z,2.60
2022-12-31T12:34:08.691Z,2.20
2022-12-31T12:36:15.910Z,2.53
2022-12-31T12:38:22.556Z,3.08
2022-12-31T12:40:33.803Z,3.35
2022-12-31T12:42:52.786Z,5.60
2022-12-31T12:45:04.569Z,4.90
2022-12-31T12:47:17.415Z,3.75
2022-12-31T12:49:25.402Z,2.72
2022-12-31T12:51:53.936Z,3.20
2022-12-31T12:54:05.466Z,3.30
2022-12-31T12:56:19.718Z,2.40
2022-12-31T12:58:37.634Z,3.00
2022-12-31T13:00:47.641Z,2.75
2022-12-31T13:03:10.566Z,3.17
2022-12-31T13:05:27.900Z,4.40
2022-12-31T13:07:41.529Z,4.57
2022-12-31T13:09:56.934Z,3.15
2022-12-31T13:12:10.765Z,2.28
2022-12-31T13:14:22.609Z,15.23
2022-12-31T13:16:34.980Z,11.23
2022-12-31T13:18:51.408Z,3.03
2022-12-31T13:20:58.940Z,2.78
2022-12-31T13:23:08.808Z,2.67
2022-12-31T13:25:26.184Z,2.80
2022-12-31T13:27:33.412Z,2.95
2022-12-31T13:29:38.848Z,2.88
2022-12-31T13:31:44.514Z,2.45
2022-12-31T13:33:55.935Z,3.05
2022-12-31T13:36:01.999Z,2.90
2022-12-31T13:38:09.891Z,3.00
2022-12-31T13:40:22.816Z,3.13
2022-12-31T13:42:31.887Z,4.32
2022-12-31T13:44:41.044Z,7.60
2022-12-31T13:46:50.043Z,7.15
2022-12-31T13:49:01.647Z,4.00
2022-12-31T13:51:11.008Z,4.03
2022-12-31T13:53:19.750Z,3.70
2022-12-31T13:55:27.620Z,3.05
2022-12-31T13:57:45.070Z,3.08
2022-12-31T13:59:53.794Z,2.90
2022-12-31T14:02:02.253Z,3.38
2022-12-31T14:04:15.954Z,4.32
2022-12-31T14:06:28.120Z,3.58
2022-12-31T14:08:33.047Z,3.85
2022-12-31T14:10:44.677Z,3.42
2022-12-31T14:12:55.357Z,2.90
2022-12-31T14:15:10.500Z,3.40
2022-12-31T14:17:22.376Z,3.05
2022-12-31T14:19:51.384Z,3.85
2022-12-31T14:22:03.495Z,5.13
2022-12-31T14:24:16.678Z,3.15
2022-12-31T14:28:34.758Z,3.97
2022-12-31T14:30:40.931Z,3.35
2022-12-31T14:33:09.082Z,3.97
2022-12-31T14:35:33.406Z,6.20
2022-12-31T14:37:44.745Z,5.53
2022-12-31T14:40:10.580Z,6.22
2022-12-31T14:42:24.031Z,5.20
2022-12-31T14:44:39.886Z,4.82
2022-12-31T14:46:55.829Z,6.72
2022-12-31T14:49:07.573Z,4.90
2022-12-31T14:51:18.151Z,4.72
2022-12-31T14:53:26.866Z,6.00
2022-12-31T14:55:33.829Z,10.18
2022-12-31T14:58:09.542Z,8.77
2022-12-31T15:00:25.746Z,5.53
2022-12-31T15:02:32.143Z,4.65
2022-12-31T15:04:45.738Z,4.22
2022-12-31T15:07:05.867Z,4.15
2022-12-31T15:09:19.772Z,4.63
2022-12-31T15:11:37.689Z,4.90
2022-12-31T15:13:52.661Z,7.35
2022-12-31T15:16:08.787Z,4.90
2022-12-31T15:18:36.879Z,4.10
2022-12-31T15:20:56.972Z,4.72
2022-12-31T15:23:04.496Z,5.72
2022-12-31T15:25:40.565Z,7.00
2022-12-31T15:27:49.715Z,5.82
2022-12-31T15:29:54.734Z,8.45
2022-12-31T15:32:00.113Z,7.80
2022-12-31T15:34:06.945Z,5.75
2022-12-31T15:36:18.424Z,5.68
2022-12-31T15:38:41.481Z,5.55
2022-12-31T15:40:47.405Z,5.28
2022-12-31T15:42:55.657Z,5.07
2022-12-31T15:45:06.869Z,6.03
2022-12-31T15:47:19.021Z,6.00
2022-12-31T15:49:26.633Z,5.40
2022-12-31T15:51:33.887Z,7.70
2022-12-31T15:53:44.588Z,12.30
2022-12-31T15:55:52.621Z,7.03
2022-12-31T15:58:00.410Z,4.43
2022-12-31T16:00:08.898Z,6.47
2022-12-31T16:02:23.030Z,5.55
2022-12-31T16:04:30.636Z,7.55
2022-12-31T16:06:38.242Z,5.88
2022-12-31T16:08:48.099Z,6.00
2022-12-31T16:10:53.103Z,6.63
2022-12-31T16:12:58.836Z,5.28
2022-12-31T16:15:03.738Z,5.22
2022-12-31T16:17:09.016Z,5.60
2022-12-31T16:19:36.349Z,6.05
2022-12-31T16:21:41.865Z,4.80
2022-12-31T16:23:56.793Z,6.18
2022-12-31T16:26:05.100Z,4.90
2022-12-31T16:28:10.157Z,7.20
2022-12-31T16:30:23.276Z,8.20
2022-12-31T16:34:32.625Z,11.40
2022-12-31T16:36:37.612Z,6.22
2022-12-31T16:38:42.558Z,6.80
2022-12-31T16:41:10.229Z,6.50
2022-12-31T16:43:29.299Z,6.25
2022-12-31T16:45:36.758Z,5.63
2022-12-31T16:47:44.567Z,7.57
2022-12-31T16:49:51.630Z,8.25
2022-12-31T16:51:58.721Z,9.65
2022-12-31T16:54:04.865Z,6.68
2022-12-31T16:56:12.570Z,8.15
2022-12-31T16:58:21.805Z,7.90
2022-12-31T17:00:27.925Z,9.88
2022-12-31T17:02:37.834Z,6.45
2022-12-31T17:04:48.055Z,10.75
2022-12-31T17:06:56.262Z,22.80
2022-12-31T17:09:14.068Z,8.13
2022-12-31T17:11:28.856Z,6.57
2022-12-31T17:13:37.452Z,16.77
2022-12-31T17:15:43.750Z,5.78
2022-12-31T17:17:53.414Z,6.20
2022-12-31T17:20:02.013Z,7.50
2022-12-31T17:22:07.747Z,7.80
2022-12-31T17:24:24.139Z,33.85
2022-12-31T17:26:36.560Z,17.25
2022-12-31T17:28:46.004Z,8.98
2022-12-31T17:30:51.246Z,6.97
2022-12-31T17:33:01.870Z,11.25
2022-12-31T17:35:30.633Z,5.53
2022-12-31T17:37:38.881Z,8.15
2022-12-31T17:39:49.940Z,5.65
2022-12-31T17:42:02.805Z,5.40
2022-12-31T17:44:07.802Z,5.32
2022-12-31T17:46:14.722Z,5.18
2022-12-31T17:48:23.013Z,7.07
2022-12-31T17:50:29.437Z,5.25
2022-12-31T17:52:36.942Z,5.45
2022-12-31T17:54:42.272Z,6.70
2022-12-31T17:56:47.841Z,4.95
2022-12-31T17:58:56.094Z,6.18
2022-12-31T18:01:01.623Z,14.70
2022-12-31T18:03:07.890Z,8.57
2022-12-31T18:05:17.694Z,7.47
2022-12-31T18:07:24.570Z,6.05
2022-12-31T18:09:29.603Z,19.80
2022-12-31T18:11:34.917Z,9.95
2022-12-31T18:13:40.098Z,5.38
2022-12-31T18:15:48.059Z,8.05
2022-12-31T18:17:53.397Z,11.10
2022-12-31T18:20:06.361Z,10.52
2022-12-31T18:22:15.869Z,10.02
2022-12-31T18:24:25.908Z,7.78
2022-12-31T18:26:32.779Z,5.72
2022-12-31T18:28:37.899Z,5.32
2022-12-31T18:30:43.470Z,6.60
2022-12-31T18:32:50.975Z,23.85
2022-12-31T18:34:56.033Z,11.00
2022-12-31T18:37:00.820Z,9.95
2022-12-31T18:39:05.665Z,11.73
2022-12-31T18:41:12.535Z,8.45
2022-12-31T18:43:19.514Z,13.27
2022-12-31T18:45:34.295Z,6.00
2022-12-31T18:47:39.707Z,6.40
2022-12-31T18:49:48.782Z,5.25
2022-12-31T18:51:55.789Z,5.75
2022-12-31T18:54:00.800Z,5.68
2022-12-31T18:56:05.618Z,5.78
2022-12-31T18:58:10.856Z,5.57
2022-12-31T19:00:16.851Z,9.13
2022-12-31T19:02:23.452Z,7.38
2022-12-31T19:04:28.584Z,14.48
2022-12-31T19:06:35.998Z,13.32
2022-12-31T19:08:41.121Z,5.95
2022-12-31T19:10:45.964Z,17.15
2022-12-31T19:12:51.185Z,8.25
2022-12-31T19:14:55.914Z,17.13
2022-12-31T19:19:08.563Z,5.97
2022-12-31T19:21:25.390Z,5.85
2022-12-31T19:23:33.496Z,6.38
2022-12-31T19:25:39.265Z,7.05
2022-12-31T19:27:43.930Z,5.60
2022-12-31T19:29:48.720Z,6.65
2022-12-31T19:31:53.857Z,6.95
2022-12-31T19:33:59.124Z,5.65
2022-12-31T19:36:04.227Z,6.75
2022-12-31T19:38:15.213Z,5.93
2022-12-31T19:40:24.703Z,6.90
2022-12-31T19:42:32.153Z,7.05
2022-12-31T19:44:38.969Z,6.72
2022-12-31T19:46:43.724Z,6.50
2022-12-31T19:48:48.848Z,7.25
2022-12-31T19:50:56.643Z,5.43
2022-12-31T19:53:01.880Z,6.82
2022-12-31T19:55:07.030Z,6.38
2022-12-31T19:57:14.415Z,9.52
2022-12-31T19:59:19.375Z,7.43
2022-12-31T20:01:25.644Z,10.05
2022-12-31T20:03:31.532Z,6.18
2022-12-31T20:05:36.491Z,7.85
2022-12-31T20:07:41.523Z,9.02
2022-12-31T20:09:46.105Z,7.07
2022-12-31T20:11:51.013Z,11.65
2022-12-31T20:13:58.404Z,8.25
2022-12-31T20:16:03.082Z,7.07
2022-12-31T20:18:08.334Z,9.57
2022-12-31T20:20:14.402Z,10.55
2022-12-31T20:22:19.933Z,11.15
2022-12-31T20:24:25.994Z,20.58
2022-12-31T20:26:30.834Z,8.32
2022-12-31T20:28:35.506Z,14.98
2022-12-31T20:30:43.180Z,9.02
2022-12-31T20:32:47.981Z,9.00
2022-12-31T20:34:52.647Z,10.48
2022-12-31T20:36:57.611Z,15.75
2022-12-31T20:39:02.414Z,11.80
2022-12-31T20:41:07.814Z,11.75
2022-12-31T20:43:12.821Z,14.70
2022-12-31T20:45:17.598Z,10.93
2022-12-31T20:47:28.068Z,11.27
2022-12-31T20:50:09.161Z,10.63
2022-12-31T20:51:57.414Z,8.98
2022-12-31T20:54:04.385Z,8.10
2022-12-31T20:56:12.402Z,8.73
2022-12-31T20:58:17.272Z,8.30
2022-12-31T21:00:22.647Z,7.63
2022-12-31T21:02:41.433Z,9.00
2022-12-31T21:04:47.592Z,9.50
2022-12-31T21:06:54.422Z,7.25
2022-12-31T21:09:00.289Z,9.48
2022-12-31T21:11:26.556Z,8.13
2022-12-31T21:13:28.837Z,9.43
2022-12-31T21:15:35.775Z,8.60
2022-12-31T21:17:43.245Z,6.07
2022-12-31T21:19:48.370Z,6.45
2022-12-31T21:21:53.366Z,10.90
2022-12-31T21:23:58.187Z,7.88
2022-12-31T21:26:02.855Z,7.88
2022-12-31T21:28:07.978Z,7.90
2022-12-31T21:30:21.050Z,8.38
2022-12-31T21:34:33.782Z,6.82
2022-12-31T21:36:38.528Z,7.15
2022-12-31T21:38:43.198Z,8.30
2022-12-31T21:40:48.001Z,8.30
2022-12-31T21:42:52.772Z,6.28
2022-12-31T21:44:57.939Z,7.60
2022-12-31T21:47:46.958Z,6.50
2022-12-31T21:49:51.786Z,6.40
2022-12-31T21:52:23.933Z,7.20
2022-12-31T21:54:41.105Z,7.63
2022-12-31T21:56:45.906Z,8.15
2022-12-31T21:59:12.172Z,9.52
2022-12-31T22:01:32.785Z,8.43
2022-12-31T22:03:35.655Z,5.93
2022-12-31T22:07:47.599Z,7.57
2022-12-31T22:09:52.558Z,8.65
2022-12-31T22:11:57.301Z,8.35
2022-12-31T22:14:02.041Z,10.00
2022-12-31T22:16:07.460Z,10.00
2022-12-31T22:18:12.411Z,7.80
2022-12-31T22:20:26.877Z,7.70
2022-12-31T22:22:35.759Z,5.93
2022-12-31T22:24:40.836Z,8.27
2022-12-31T22:26:46.897Z,17.60
2022-12-31T22:28:52.472Z,14.85
2022-12-31T22:30:57.651Z,10.57
2022-12-31T22:33:02.450Z,9.85
2022-12-31T22:35:08.162Z,10.70
2022-12-31T22:37:35.662Z,8.05
2022-12-31T22:39:44.778Z,9.85
2022-12-31T22:41:49.857Z,9.80
2022-12-31T22:44:02.661Z,8.20
2022-12-31T22:46:12.637Z,10.05
2022-12-31T22:48:17.479Z,8.55
2022-12-31T22:50:22.321Z,10.50
2022-12-31T22:52:27.783Z,9.50
2022-12-31T22:54:32.790Z,8.25
2022-12-31T22:56:40.303Z,8.02
2022-12-31T22:58:45.546Z,12.05
2022-12-31T23:00:50.812Z,6.95
2022-12-31T23:02:55.543Z,16.08
2022-12-31T23:05:15.816Z,15.65
2022-12-31T23:07:21.229Z,37.88
2022-12-31T23:09:38.477Z,47.08
2022-12-31T23:11:46.105Z,57.10
2022-12-31T23:14:03.241Z,92.80
2022-12-31T23:16:21.019Z,83.80
2022-12-31T23:18:38.213Z,49.25
2022-12-31T23:20:55.497Z,72.47
2022-12-31T23:23:10.792Z,88.90
2022-12-31T23:25:15.416Z,84.22
2022-12-31T23:27:22.798Z,77.07
2022-12-31T23:29:28.337Z,92.93
2022-12-31T23:31:34.133Z,50.75
2022-12-31T23:33:38.978Z,56.83
2022-12-31T23:35:43.766Z,59.17
2022-12-31T23:37:48.560Z,38.05
2022-12-31T23:39:53.329Z,43.30
2022-12-31T23:42:00.828Z,39.17
2022-12-31T23:44:10.021Z,39.00
2022-12-31T23:46:15.897Z,35.28
2022-12-31T23:48:20.707Z,42.95
2022-12-31T23:50:25.574Z,42.90
2022-12-31T23:52:30.971Z,44.05
2022-12-31T23:54:35.692Z,37.85
2022-12-31T23:56:40.515Z,34.15
2022-12-31T23:58:45.535Z,37.03
